sensor_id;sensor_type;location;lat;lon;timestamp;pressure;altitude;pressure_sealevel;temperature;humidity
79455;BME280;68900;52.134;5.420;2023-05-07T00:01:10;101769.81;;;15.18;84.03
79455;BME280;68900;52.134;5.420;2023-05-07T00:03:37;101764.53;;;15.17;83.70
79455;BME280;68900;52.134;5.420;2023-05-07T00:06:13;101773.00;;;15.14;83.37
79455;BME280;68900;52.134;5.420;2023-05-07T00:08:40;101784.28;;;15.19;83.56
79455;BME280;68900;52.134;5.420;2023-05-07T00:11:06;101778.84;;;15.19;83.85
79455;BME280;68900;52.134;5.420;2023-05-07T00:13:33;101774.72;;;15.15;83.97
79455;BME280;68900;52.134;5.420;2023-05-07T00:16:02;101777.44;;;15.15;83.71
79455;BME280;68900;52.134;5.420;2023-05-07T00:18:29;101774.34;;;15.10;84.17
79455;BME280;68900;52.134;5.420;2023-05-07T00:20:55;101768.38;;;15.06;83.85
79455;BME280;68900;52.134;5.420;2023-05-07T00:23:24;101777.69;;;15.03;84.03
79455;BME280;68900;52.134;5.420;2023-05-07T00:25:51;101772.97;;;15.06;84.26
79455;BME280;68900;52.134;5.420;2023-05-07T00:28:17;101772.25;;;15.03;83.66
79455;BME280;68900;52.134;5.420;2023-05-07T00:30:43;101765.44;;;14.99;84.19
79455;BME280;68900;52.134;5.420;2023-05-07T00:33:10;101764.91;;;14.96;84.21
79455;BME280;68900;52.134;5.420;2023-05-07T00:35:36;101762.50;;;14.93;84.58
79455;BME280;68900;52.134;5.420;2023-05-07T00:38:03;101756.50;;;14.89;84.56
79455;BME280;68900;52.134;5.420;2023-05-07T00:40:29;101758.84;;;14.84;84.06
79455;BME280;68900;52.134;5.420;2023-05-07T00:42:56;101757.69;;;14.87;84.88
79455;BME280;68900;52.134;5.420;2023-05-07T00:45:27;101756.13;;;14.84;84.46
79455;BME280;68900;52.134;5.420;2023-05-07T00:47:59;101751.63;;;14.75;84.48
79455;BME280;68900;52.134;5.420;2023-05-07T00:50:26;101746.19;;;14.75;84.74
79455;BME280;68900;52.134;5.420;2023-05-07T00:52:54;101746.03;;;14.77;84.93
79455;BME280;68900;52.134;5.420;2023-05-07T00:55:22;101743.84;;;14.80;84.79
79455;BME280;68900;52.134;5.420;2023-05-07T00:57:50;101750.69;;;14.84;84.46
79455;BME280;68900;52.134;5.420;2023-05-07T01:00:17;101743.56;;;14.83;84.70
79455;BME280;68900;52.134;5.420;2023-05-07T01:02:44;101747.97;;;14.84;84.64
79455;BME280;68900;52.134;5.420;2023-05-07T01:05:12;101750.69;;;14.84;85.17
79455;BME280;68900;52.134;5.420;2023-05-07T01:07:41;101743.72;;;14.82;84.89
79455;BME280;68900;52.134;5.420;2023-05-07T01:10:08;101741.84;;;14.82;84.83
79455;BME280;68900;52.134;5.420;2023-05-07T01:12:37;101739.13;;;14.82;84.58
79455;BME280;68900;52.134;5.420;2023-05-07T01:15:05;101740.13;;;14.81;84.99
79455;BME280;68900;52.134;5.420;2023-05-07T01:17:36;101744.56;;;14.82;84.97
79455;BME280;68900;52.134;5.420;2023-05-07T01:20:07;101746.28;;;14.83;85.10
79455;BME280;68900;52.134;5.420;2023-05-07T01:22:36;101747.81;;;14.86;85.20
79455;BME280;68900;52.134;5.420;2023-05-07T01:25:06;101742.53;;;14.84;85.39
79455;BME280;68900;52.134;5.420;2023-05-07T01:27:33;101746.28;;;14.83;85.02
79455;BME280;68900;52.134;5.420;2023-05-07T01:30:01;101742.84;;;14.81;85.50
79455;BME280;68900;52.134;5.420;2023-05-07T01:32:38;101753.72;;;14.81;85.13
79455;BME280;68900;52.134;5.420;2023-05-07T01:35:10;101744.91;;;14.79;85.04
79455;BME280;68900;52.134;5.420;2023-05-07T01:37:38;101750.34;;;14.79;85.42
79455;BME280;68900;52.134;5.420;2023-05-07T01:40:06;101743.31;;;14.77;85.15
79455;BME280;68900;52.134;5.420;2023-05-07T01:42:33;101741.47;;;14.77;85.32
79455;BME280;68900;52.134;5.420;2023-05-07T01:45:00;101741.63;;;14.76;85.94
79455;BME280;68900;52.134;5.420;2023-05-07T01:47:26;101744.34;;;14.76;85.83
79455;BME280;68900;52.134;5.420;2023-05-07T01:49:53;101745.19;;;14.76;85.35
79455;BME280;68900;52.134;5.420;2023-05-07T01:52:20;101749.63;;;14.77;85.85
79455;BME280;68900;52.134;5.420;2023-05-07T01:54:47;101750.63;;;14.76;85.55
79455;BME280;68900;52.134;5.420;2023-05-07T01:57:13;101747.03;;;14.76;85.68
79455;BME280;68900;52.134;5.420;2023-05-07T01:59:40;101737.34;;;14.73;85.93
79455;BME280;68900;52.134;5.420;2023-05-07T02:02:06;101738.91;;;14.76;85.74
79455;BME280;68900;52.134;5.420;2023-05-07T02:04:33;101744.19;;;14.77;85.72
79455;BME280;68900;52.134;5.420;2023-05-07T02:06:59;101745.19;;;14.76;86.05
79455;BME280;68900;52.134;5.420;2023-05-07T02:09:26;101749.22;;;14.72;86.22
79455;BME280;68900;52.134;5.420;2023-05-07T02:11:52;101745.50;;;14.73;86.27
79455;BME280;68900;52.134;5.420;2023-05-07T02:14:19;101751.94;;;14.72;85.90
79455;BME280;68900;52.134;5.420;2023-05-07T02:16:46;101757.38;;;14.72;85.97
79455;BME280;68900;52.134;5.420;2023-05-07T02:19:13;101754.66;;;14.72;86.44
79455;BME280;68900;52.134;5.420;2023-05-07T02:21:39;101751.94;;;14.72;86.16
79455;BME280;68900;52.134;5.420;2023-05-07T02:24:06;101741.06;;;14.72;85.85
79455;BME280;68900;52.134;5.420;2023-05-07T02:26:35;101741.94;;;14.73;86.13
79455;BME280;68900;52.134;5.420;2023-05-07T02:29:01;101737.50;;;14.72;86.41
79455;BME280;68900;52.134;5.420;2023-05-07T02:31:28;101747.50;;;14.71;86.50
79455;BME280;68900;52.134;5.420;2023-05-07T02:33:55;101742.09;;;14.71;86.55
79455;BME280;68900;52.134;5.420;2023-05-07T02:36:21;101747.69;;;14.70;86.93
79455;BME280;68900;52.134;5.420;2023-05-07T02:38:48;101749.84;;;14.66;86.28
79455;BME280;68900;52.134;5.420;2023-05-07T02:41:14;101754.28;;;14.67;86.31
79455;BME280;68900;52.134;5.420;2023-05-07T02:43:44;101748.84;;;14.67;86.70
79455;BME280;68900;52.134;5.420;2023-05-07T02:46:11;101745.44;;;14.65;86.86
79455;BME280;68900;52.134;5.420;2023-05-07T02:48:37;101743.88;;;14.63;86.66
79455;BME280;68900;52.134;5.420;2023-05-07T02:51:04;101746.59;;;14.63;87.05
79455;BME280;68900;52.134;5.420;2023-05-07T02:53:31;101738.91;;;14.58;87.34
79455;BME280;68900;52.134;5.420;2023-05-07T02:55:59;101742.94;;;14.54;86.59
79455;BME280;68900;52.134;5.420;2023-05-07T02:58:26;101741.22;;;14.53;86.76
79455;BME280;68900;52.134;5.420;2023-05-07T03:00:53;101733.25;;;14.51;86.69
79455;BME280;68900;52.134;5.420;2023-05-07T03:03:20;101740.31;;;14.44;87.11
79455;BME280;68900;52.134;5.420;2023-05-07T03:05:47;101742.22;;;14.52;84.96
79455;BME280;68900;52.134;5.420;2023-05-07T03:08:13;101742.47;;;14.58;86.38
79455;BME280;68900;52.134;5.420;2023-05-07T03:10:40;101747.91;;;14.58;86.56
79455;BME280;68900;52.134;5.420;2023-05-07T03:13:09;101739.91;;;14.57;87.14
79455;BME280;68900;52.134;5.420;2023-05-07T03:15:36;101750.09;;;14.55;87.54
79455;BME280;68900;52.134;5.420;2023-05-07T03:18:02;101741.09;;;14.54;86.98
79455;BME280;68900;52.134;5.420;2023-05-07T03:20:29;101741.94;;;14.55;87.54
79455;BME280;68900;52.134;5.420;2023-05-07T03:22:56;101742.94;;;14.54;87.48
79455;BME280;68900;52.134;5.420;2023-05-07T03:25:22;101736.13;;;14.50;87.06
79455;BME280;68900;52.134;5.420;2023-05-07T03:27:49;101734.72;;;14.46;87.06
79455;BME280;68900;52.134;5.420;2023-05-07T03:30:15;101741.16;;;14.45;87.00
79455;BME280;68900;52.134;5.420;2023-05-07T03:32:42;101741.03;;;14.46;87.14
79455;BME280;68900;52.134;5.420;2023-05-07T03:35:08;101746.28;;;14.48;87.23
79455;BME280;68900;52.134;5.420;2023-05-07T03:37:35;101735.72;;;14.45;87.17
79455;BME280;68900;52.134;5.420;2023-05-07T03:40:01;101738.13;;;14.48;87.40
79455;BME280;68900;52.134;5.420;2023-05-07T03:42:28;101745.41;;;14.47;86.99
79455;BME280;68900;52.134;5.420;2023-05-07T03:44:54;101737.44;;;14.46;87.35
79455;BME280;68900;52.134;5.420;2023-05-07T03:47:21;101740.31;;;14.44;87.41
79455;BME280;68900;52.134;5.420;2023-05-07T03:49:47;101745.19;;;14.41;87.11
79455;BME280;68900;52.134;5.420;2023-05-07T03:52:15;101737.91;;;14.41;87.20
79455;BME280;68900;52.134;5.420;2023-05-07T03:54:42;101743.47;;;14.40;86.73
79455;BME280;68900;52.134;5.420;2023-05-07T03:57:08;101749.63;;;14.42;86.68
79455;BME280;68900;52.134;5.420;2023-05-07T03:59:34;101745.06;;;14.42;87.14
79455;BME280;68900;52.134;5.420;2023-05-07T04:02:01;101743.34;;;14.41;87.24
79455;BME280;68900;52.134;5.420;2023-05-07T04:04:30;101751.31;;;14.43;86.96
79455;BME280;68900;52.134;5.420;2023-05-07T04:06:58;101752.47;;;14.40;87.44
79455;BME280;68900;52.134;5.420;2023-05-07T04:09:28;101755.06;;;14.42;87.07
79455;BME280;68900;52.134;5.420;2023-05-07T04:11:54;101756.06;;;14.41;87.05
79455;BME280;68900;52.134;5.420;2023-05-07T04:14:23;101759.78;;;14.40;87.01
79455;BME280;68900;52.134;5.420;2023-05-07T04:16:50;101761.16;;;14.44;87.29
79455;BME280;68900;52.134;5.420;2023-05-07T04:19:16;101768.47;;;14.43;87.33
79455;BME280;68900;52.134;5.420;2023-05-07T04:21:43;101762.16;;;14.43;87.31
79455;BME280;68900;52.134;5.420;2023-05-07T04:24:09;101761.16;;;14.44;87.27
79455;BME280;68900;52.134;5.420;2023-05-07T04:26:35;101764.75;;;14.44;87.29
79455;BME280;68900;52.134;5.420;2023-05-07T04:29:04;101759.16;;;14.46;87.51
79455;BME280;68900;52.134;5.420;2023-05-07T04:31:31;101763.75;;;14.45;87.50
79455;BME280;68900;52.134;5.420;2023-05-07T04:33:58;101771.03;;;14.45;86.71
79455;BME280;68900;52.134;5.420;2023-05-07T04:36:24;101766.47;;;14.45;87.38
79455;BME280;68900;52.134;5.420;2023-05-07T04:38:54;101770.31;;;14.43;86.95
79455;BME280;68900;52.134;5.420;2023-05-07T04:41:20;101762.50;;;14.40;87.05
79455;BME280;68900;52.134;5.420;2023-05-07T04:43:47;101760.47;;;14.42;86.92
79455;BME280;68900;52.134;5.420;2023-05-07T04:46:13;101761.88;;;14.46;86.66
79455;BME280;68900;52.134;5.420;2023-05-07T04:48:40;101760.16;;;14.45;86.72
79455;BME280;68900;52.134;5.420;2023-05-07T04:51:09;101765.91;;;14.42;87.14
79455;BME280;68900;52.134;5.420;2023-05-07T04:53:37;101772.81;;;14.36;86.30
79455;BME280;68900;52.134;5.420;2023-05-07T04:56:03;101771.06;;;14.35;86.90
79455;BME280;68900;52.134;5.420;2023-05-07T04:58:30;101774.94;;;14.33;86.66
79455;BME280;68900;52.134;5.420;2023-05-07T05:00:58;101783.09;;;14.33;86.37
79455;BME280;68900;52.134;5.420;2023-05-07T05:03:25;101778.13;;;14.28;85.78
79455;BME280;68900;52.134;5.420;2023-05-07T05:05:52;101789.44;;;14.24;86.89
79455;BME280;68900;52.134;5.420;2023-05-07T05:08:19;101782.16;;;14.24;86.83
79455;BME280;68900;52.134;5.420;2023-05-07T05:10:45;101780.25;;;14.25;86.69
79455;BME280;68900;52.134;5.420;2023-05-07T05:13:14;101772.97;;;14.25;86.54
79455;BME280;68900;52.134;5.420;2023-05-07T05:15:41;101784.00;;;14.24;86.65
79455;BME280;68900;52.134;5.420;2023-05-07T05:18:07;101779.25;;;14.26;86.94
79455;BME280;68900;52.134;5.420;2023-05-07T05:20:34;101789.13;;;14.27;86.46
79455;BME280;68900;52.134;5.420;2023-05-07T05:23:00;101790.66;;;14.29;86.42
79455;BME280;68900;52.134;5.420;2023-05-07T05:25:27;101792.25;;;14.32;86.90
79455;BME280;68900;52.134;5.420;2023-05-07T05:27:54;101787.66;;;14.32;87.19
79455;BME280;68900;52.134;5.420;2023-05-07T05:30:21;101786.25;;;14.28;87.14
79455;BME280;68900;52.134;5.420;2023-05-07T05:32:48;101790.84;;;14.28;87.06
79455;BME280;68900;52.134;5.420;2023-05-07T05:35:15;101796.53;;;14.25;87.17
79455;BME280;68900;52.134;5.420;2023-05-07T05:37:41;101795.72;;;14.24;87.34
79455;BME280;68900;52.134;5.420;2023-05-07T05:40:08;101804.00;;;14.23;87.35
79455;BME280;68900;52.134;5.420;2023-05-07T05:42:35;101805.94;;;14.30;87.22
79455;BME280;68900;52.134;5.420;2023-05-07T05:45:05;101808.22;;;14.35;87.18
79455;BME280;68900;52.134;5.420;2023-05-07T05:47:31;101816.34;;;14.35;87.18
79455;BME280;68900;52.134;5.420;2023-05-07T05:49:58;101817.34;;;14.34;86.79
79455;BME280;68900;52.134;5.420;2023-05-07T05:52:24;101814.50;;;14.35;87.09
79455;BME280;68900;52.134;5.420;2023-05-07T05:54:53;101824.78;;;14.41;87.07
79455;BME280;68900;52.134;5.420;2023-05-07T05:57:20;101822.47;;;14.46;86.73
79455;BME280;68900;52.134;5.420;2023-05-07T05:59:46;101820.75;;;14.45;87.68
79455;BME280;68900;52.134;5.420;2023-05-07T06:02:13;101826.34;;;14.44;87.65
79455;BME280;68900;52.134;5.420;2023-05-07T06:04:40;101828.75;;;14.47;87.70
79455;BME280;68900;52.134;5.420;2023-05-07T06:07:06;101832.16;;;14.49;87.49
79455;BME280;68900;52.134;5.420;2023-05-07T06:09:33;101839.31;;;14.50;86.65
79455;BME280;68900;52.134;5.420;2023-05-07T06:11:59;101837.13;;;14.53;87.01
79455;BME280;68900;52.134;5.420;2023-05-07T06:14:26;101836.84;;;14.56;87.26
79455;BME280;68900;52.134;5.420;2023-05-07T06:16:52;101831.56;;;14.55;87.76
79455;BME280;68900;52.134;5.420;2023-05-07T06:19:19;101836.47;;;14.51;87.31
79455;BME280;68900;52.134;5.420;2023-05-07T06:21:49;101839.84;;;14.53;88.01
79455;BME280;68900;52.134;5.420;2023-05-07T06:24:16;101841.44;;;14.56;87.11
79455;BME280;68900;52.134;5.420;2023-05-07T06:26:42;101843.81;;;14.59;87.59
79455;BME280;68900;52.134;5.420;2023-05-07T06:29:09;101850.81;;;14.62;87.95
79455;BME280;68900;52.134;5.420;2023-05-07T06:31:38;101835.81;;;14.57;88.04
79455;BME280;68900;52.134;5.420;2023-05-07T06:34:05;101838.53;;;14.57;87.97
79455;BME280;68900;52.134;5.420;2023-05-07T06:36:31;101835.69;;;14.59;88.03
79455;BME280;68900;52.134;5.420;2023-05-07T06:38:57;101842.38;;;14.65;87.43
79455;BME280;68900;52.134;5.420;2023-05-07T06:41:24;101844.09;;;14.66;88.17
79455;BME280;68900;52.134;5.420;2023-05-07T06:43:52;101843.22;;;14.65;88.10
79455;BME280;68900;52.134;5.420;2023-05-07T06:46:20;101849.34;;;14.67;88.27
79455;BME280;68900;52.134;5.420;2023-05-07T06:48:47;101840.50;;;14.65;88.35
79455;BME280;68900;52.134;5.420;2023-05-07T06:51:13;101839.78;;;14.63;88.25
79455;BME280;68900;52.134;5.420;2023-05-07T06:53:40;101841.19;;;14.67;88.26
79455;BME280;68900;52.134;5.420;2023-05-07T06:56:06;101843.06;;;14.67;88.31
79455;BME280;68900;52.134;5.420;2023-05-07T06:58:33;101836.94;;;14.65;88.41
79455;BME280;68900;52.134;5.420;2023-05-07T07:00:59;101848.34;;;14.68;88.56
79455;BME280;68900;52.134;5.420;2023-05-07T07:03:26;101834.63;;;14.70;88.83
79455;BME280;68900;52.134;5.420;2023-05-07T07:05:53;101836.16;;;14.72;88.50
79455;BME280;68900;52.134;5.420;2023-05-07T07:08:20;101848.13;;;14.79;88.00
79455;BME280;68900;52.134;5.420;2023-05-07T07:10:47;101835.38;;;14.80;88.52
79455;BME280;68900;52.134;5.420;2023-05-07T07:13:14;101836.63;;;14.85;88.15
79455;BME280;68900;52.134;5.420;2023-05-07T07:15:41;101831.75;;;14.89;89.22
79455;BME280;68900;52.134;5.420;2023-05-07T07:18:07;101843.69;;;14.96;88.80
79455;BME280;68900;52.134;5.420;2023-05-07T07:20:33;101836.94;;;15.00;88.18
79455;BME280;68900;52.134;5.420;2023-05-07T07:23:00;101845.34;;;15.07;87.91
79455;BME280;68900;52.134;5.420;2023-05-07T07:25:29;101839.25;;;15.13;88.50
79455;BME280;68900;52.134;5.420;2023-05-07T07:27:56;101842.38;;;15.18;87.92
79455;BME280;68900;52.134;5.420;2023-05-07T07:30:23;101839.34;;;15.21;87.63
79455;BME280;68900;52.134;5.420;2023-05-07T07:32:49;101845.19;;;15.26;87.46
79455;BME280;68900;52.134;5.420;2023-05-07T07:35:16;101847.56;;;15.29;87.18
79455;BME280;68900;52.134;5.420;2023-05-07T07:37:42;101848.97;;;15.33;87.14
79455;BME280;68900;52.134;5.420;2023-05-07T07:40:09;101842.19;;;15.37;86.32
79455;BME280;68900;52.134;5.420;2023-05-07T07:42:36;101845.63;;;15.39;87.10
79455;BME280;68900;52.134;5.420;2023-05-07T07:45:03;101850.41;;;15.45;86.88
79455;BME280;68900;52.134;5.420;2023-05-07T07:47:29;101851.97;;;15.47;86.18
79455;BME280;68900;52.134;5.420;2023-05-07T07:49:56;101846.63;;;15.56;86.62
79455;BME280;68900;52.134;5.420;2023-05-07T07:52:23;101853.31;;;15.61;86.61
79455;BME280;68900;52.134;5.420;2023-05-07T07:54:49;101850.09;;;15.66;86.52
79455;BME280;68900;52.134;5.420;2023-05-07T07:57:15;101859.16;;;15.74;86.08
79455;BME280;68900;52.134;5.420;2023-05-07T07:59:42;101853.72;;;15.74;86.04
79455;BME280;68900;52.134;5.420;2023-05-07T08:02:11;101855.97;;;15.79;85.80
79455;BME280;68900;52.134;5.420;2023-05-07T08:04:38;101862.63;;;15.84;85.83
79455;BME280;68900;52.134;5.420;2023-05-07T08:07:04;101868.09;;;15.84;85.20
79455;BME280;68900;52.134;5.420;2023-05-07T08:09:31;101862.63;;;15.84;85.81
79455;BME280;68900;52.134;5.420;2023-05-07T08:11:58;101862.50;;;15.86;85.48
79455;BME280;68900;52.134;5.420;2023-05-07T08:14:25;101865.84;;;15.80;85.25
79455;BME280;68900;52.134;5.420;2023-05-07T08:16:51;101863.97;;;15.80;84.92
79455;BME280;68900;52.134;5.420;2023-05-07T08:19:18;101867.72;;;15.79;85.72
79455;BME280;68900;52.134;5.420;2023-05-07T08:21:45;101864.50;;;15.84;86.15
79455;BME280;68900;52.134;5.420;2023-05-07T08:24:14;101868.28;;;15.91;85.42
79455;BME280;68900;52.134;5.420;2023-05-07T08:26:41;101868.13;;;15.93;86.36
79455;BME280;68900;52.134;5.420;2023-05-07T08:29:08;101878.63;;;15.87;85.88
79455;BME280;68900;52.134;5.420;2023-05-07T08:31:34;101857.50;;;15.81;86.59
79455;BME280;68900;52.134;5.420;2023-05-07T08:34:01;101866.22;;;15.85;86.27
79455;BME280;68900;52.134;5.420;2023-05-07T08:36:27;101863.66;;;15.83;86.39
79455;BME280;68900;52.134;5.420;2023-05-07T08:38:54;101871.19;;;15.89;86.49
79455;BME280;68900;52.134;5.420;2023-05-07T08:41:21;101875.66;;;15.99;86.92
79455;BME280;68900;52.134;5.420;2023-05-07T08:43:49;101872.75;;;16.00;86.72
79455;BME280;68900;52.134;5.420;2023-05-07T08:46:17;101870.72;;;16.02;86.28
79455;BME280;68900;52.134;5.420;2023-05-07T08:48:43;101869.25;;;16.08;86.09
79455;BME280;68900;52.134;5.420;2023-05-07T08:51:15;101871.63;;;16.11;86.92
79455;BME280;68900;52.134;5.420;2023-05-07T08:53:42;101871.00;;;16.17;87.08
79455;BME280;68900;52.134;5.420;2023-05-07T08:56:09;101870.28;;;16.15;86.41
79455;BME280;68900;52.134;5.420;2023-05-07T08:58:35;101868.94;;;16.19;87.08
79455;BME280;68900;52.134;5.420;2023-05-07T09:01:07;101873.06;;;16.23;86.17
79455;BME280;68900;52.134;5.420;2023-05-07T09:03:34;101877.47;;;16.24;86.00
79455;BME280;68900;52.134;5.420;2023-05-07T09:06:00;101877.66;;;16.22;86.80
79455;BME280;68900;52.134;5.420;2023-05-07T09:08:27;101875.47;;;16.26;86.52
79455;BME280;68900;52.134;5.420;2023-05-07T09:10:54;101875.63;;;16.24;86.86
79455;BME280;68900;52.134;5.420;2023-05-07T09:13:20;101872.03;;;16.24;87.16
79455;BME280;68900;52.134;5.420;2023-05-07T09:15:48;101878.16;;;16.18;87.11
79455;BME280;68900;52.134;5.420;2023-05-07T09:18:15;101873.06;;;16.23;87.18
79455;BME280;68900;52.134;5.420;2023-05-07T09:20:42;101874.25;;;16.28;86.79
79455;BME280;68900;52.134;5.420;2023-05-07T09:23:08;101872.59;;;16.27;86.97
79455;BME280;68900;52.134;5.420;2023-05-07T09:25:35;101877.00;;;16.28;86.80
79455;BME280;68900;52.134;5.420;2023-05-07T09:28:05;101883.28;;;16.29;86.59
79455;BME280;68900;52.134;5.420;2023-05-07T09:30:34;101874.97;;;16.30;86.76
79455;BME280;68900;52.134;5.420;2023-05-07T09:33:02;101878.22;;;16.34;85.90
79455;BME280;68900;52.134;5.420;2023-05-07T09:35:30;101881.28;;;16.31;86.34
79455;BME280;68900;52.134;5.420;2023-05-07T09:37:58;101884.63;;;16.25;85.39
79455;BME280;68900;52.134;5.420;2023-05-07T09:40:30;101876.31;;;16.26;85.71
79455;BME280;68900;52.134;5.420;2023-05-07T09:43:08;101882.44;;;16.28;85.33
79455;BME280;68900;52.134;5.420;2023-05-07T09:45:36;101874.09;;;16.22;84.99
79455;BME280;68900;52.134;5.420;2023-05-07T09:48:05;101880.16;;;16.16;85.20
79455;BME280;68900;52.134;5.420;2023-05-07T09:50:45;101889.03;;;16.18;84.85
79455;BME280;68900;52.134;5.420;2023-05-07T09:53:15;101881.88;;;16.17;84.85
79455;BME280;68900;52.134;5.420;2023-05-07T09:55:43;101884.44;;;16.18;84.68
79455;BME280;68900;52.134;5.420;2023-05-07T09:58:12;101887.00;;;16.20;84.34
79455;BME280;68900;52.134;5.420;2023-05-07T10:00:39;101882.78;;;16.25;84.39
79455;BME280;68900;52.134;5.420;2023-05-07T10:03:06;101889.47;;;16.39;85.60
79455;BME280;68900;52.134;5.420;2023-05-07T10:05:33;101890.50;;;16.46;85.19
79455;BME280;68900;52.134;5.420;2023-05-07T10:08:00;101893.44;;;16.53;85.10
79455;BME280;68900;52.134;5.420;2023-05-07T10:10:32;101897.53;;;16.57;85.11
79455;BME280;68900;52.134;5.420;2023-05-07T10:12:58;101898.97;;;16.61;84.49
79455;BME280;68900;52.134;5.420;2023-05-07T10:15:26;101901.53;;;16.62;85.43
79455;BME280;68900;52.134;5.420;2023-05-07T10:17:53;101897.59;;;16.65;83.60
79455;BME280;68900;52.134;5.420;2023-05-07T10:20:20;101889.28;;;16.66;83.88
79455;BME280;68900;52.134;5.420;2023-05-07T10:22:47;101899.34;;;16.74;83.71
79455;BME280;68900;52.134;5.420;2023-05-07T10:25:21;101900.25;;;16.83;84.46
79455;BME280;68900;52.134;5.420;2023-05-07T10:27:50;101899.91;;;16.86;84.15
79455;BME280;68900;52.134;5.420;2023-05-07T10:30:26;101894.28;;;16.87;82.53
79455;BME280;68900;52.134;5.420;2023-05-07T10:33:04;101893.59;;;16.93;82.62
79455;BME280;68900;52.134;5.420;2023-05-07T10:35:38;101898.56;;;16.98;83.68
79455;BME280;68900;52.134;5.420;2023-05-07T10:38:06;101897.38;;;17.00;82.99
79455;BME280;68900;52.134;5.420;2023-05-07T10:40:33;101901.13;;;17.07;82.54
79455;BME280;68900;52.134;5.420;2023-05-07T10:43:01;101898.59;;;17.14;82.78
79455;BME280;68900;52.134;5.420;2023-05-07T10:45:29;101890.25;;;17.32;82.50
79455;BME280;68900;52.134;5.420;2023-05-07T10:48:14;101896.25;;;17.51;82.41
79455;BME280;68900;52.134;5.420;2023-05-07T10:50:44;101893.53;;;17.59;79.89
79455;BME280;68900;52.134;5.420;2023-05-07T10:55:42;101895.03;;;17.86;80.48
79455;BME280;68900;52.134;5.420;2023-05-07T11:00:59;101898.81;;;17.77;78.55
79455;BME280;68900;52.134;5.420;2023-05-07T11:03:26;101895.03;;;17.86;79.29
79455;BME280;68900;52.134;5.420;2023-05-07T11:08:57;101887.34;;;17.90;78.54
79455;BME280;68900;52.134;5.420;2023-05-07T11:11:46;101891.78;;;18.07;78.95
79455;BME280;68900;52.134;5.420;2023-05-07T11:14:14;101894.50;;;18.07;77.94
79455;BME280;68900;52.134;5.420;2023-05-07T11:17:02;101898.59;;;18.11;79.27
79455;BME280;68900;52.134;5.420;2023-05-07T11:19:51;101896.50;;;18.13;77.91
79455;BME280;68900;52.134;5.420;2023-05-07T11:25:04;101898.72;;;18.18;78.92
79455;BME280;68900;52.134;5.420;2023-05-07T11:27:32;101909.44;;;18.27;77.76
79455;BME280;68900;52.134;5.420;2023-05-07T11:29:59;101912.19;;;18.27;78.17
79455;BME280;68900;52.134;5.420;2023-05-07T11:32:32;101905.69;;;18.28;79.46
79455;BME280;68900;52.134;5.420;2023-05-07T11:35:00;101894.72;;;18.36;77.76
79455;BME280;68900;52.134;5.420;2023-05-07T11:37:27;101898.47;;;18.43;77.88
79455;BME280;68900;52.134;5.420;2023-05-07T11:40:06;101898.66;;;18.42;76.77
79455;BME280;68900;52.134;5.420;2023-05-07T11:42:38;101898.31;;;18.45;78.15
79455;BME280;68900;52.134;5.420;2023-05-07T11:45:06;101902.38;;;18.57;77.85
79455;BME280;68900;52.134;5.420;2023-05-07T11:47:33;101903.56;;;18.63;76.87
79455;BME280;68900;52.134;5.420;2023-05-07T11:50:07;101893.56;;;18.78;78.03
79455;BME280;68900;52.134;5.420;2023-05-07T11:52:35;101894.13;;;18.96;76.92
79455;BME280;68900;52.134;5.420;2023-05-07T11:55:02;101903.03;;;18.98;76.46
79455;BME280;68900;52.134;5.420;2023-05-07T11:57:33;101893.53;;;18.86;76.66
79455;BME280;68900;52.134;5.420;2023-05-07T12:00:02;101898.81;;;18.87;76.47
79455;BME280;68900;52.134;5.420;2023-05-07T12:02:30;101895.53;;;18.92;77.09
79455;BME280;68900;52.134;5.420;2023-05-07T12:05:00;101898.41;;;18.98;76.63
79455;BME280;68900;52.134;5.420;2023-05-07T12:07:26;101904.53;;;19.01;77.32
79455;BME280;68900;52.134;5.420;2023-05-07T12:09:53;101902.41;;;19.11;75.71
79455;BME280;68900;52.134;5.420;2023-05-07T12:12:26;101893.81;;;19.22;75.47
79455;BME280;68900;52.134;5.420;2023-05-07T12:14:53;101900.25;;;19.29;74.25
79455;BME280;68900;52.134;5.420;2023-05-07T12:17:21;101897.47;;;19.37;74.66
79455;BME280;68900;52.134;5.420;2023-05-07T12:19:48;101901.88;;;19.46;74.42
79455;BME280;68900;52.134;5.420;2023-05-07T12:22:14;101899.47;;;19.66;74.19
79455;BME280;68900;52.134;5.420;2023-05-07T12:24:44;101890.63;;;19.78;74.57
79455;BME280;68900;52.134;5.420;2023-05-07T12:27:11;101894.13;;;19.87;73.77
79455;BME280;68900;52.134;5.420;2023-05-07T12:29:38;101891.69;;;19.92;72.50
79455;BME280;68900;52.134;5.420;2023-05-07T12:32:13;101891.69;;;19.92;72.88
79455;BME280;68900;52.134;5.420;2023-05-07T12:34:39;101891.78;;;19.99;72.22
79455;BME280;68900;52.134;5.420;2023-05-07T12:37:11;101893.97;;;20.03;73.01
79455;BME280;68900;52.134;5.420;2023-05-07T12:39:49;101886.97;;;20.01;71.52
79455;BME280;68900;52.134;5.420;2023-05-07T12:42:19;101888.69;;;20.02;71.93
79455;BME280;68900;52.134;5.420;2023-05-07T12:44:46;101897.56;;;20.04;70.97
79455;BME280;68900;52.134;5.420;2023-05-07T12:47:14;101893.22;;;20.09;71.63
79455;BME280;68900;52.134;5.420;2023-05-07T12:49:41;101890.09;;;20.27;70.54
79455;BME280;68900;52.134;5.420;2023-05-07T12:52:07;101892.31;;;20.46;69.48
79455;BME280;68900;52.134;5.420;2023-05-07T12:54:37;101894.59;;;20.43;68.13
79455;BME280;68900;52.134;5.420;2023-05-07T12:57:08;101898.81;;;20.31;68.21
79455;BME280;68900;52.134;5.420;2023-05-07T12:59:47;101892.47;;;20.45;67.63
79455;BME280;68900;52.134;5.420;2023-05-07T13:02:16;101892.13;;;20.48;66.20
79455;BME280;68900;52.134;5.420;2023-05-07T13:04:42;101901.66;;;20.37;66.33